createdAt,value
2018-12-27T00:02:22.370Z,62.18
2018-12-27T00:05:12.464Z,61.83
2018-12-27T00:08:02.974Z,61.73
2018-12-27T00:10:53.194Z,61.42
2018-12-27T00:13:43.006Z,60.97
2018-12-27T00:16:32.989Z,60.97
2018-12-27T00:19:22.938Z,61.40
2018-12-27T00:22:12.817Z,61.65
2018-12-27T00:25:02.644Z,61.85
2018-12-27T00:27:52.505Z,62.01
2018-12-27T00:30:42.174Z,62.46
2018-12-27T00:33:32.268Z,62.66
2018-12-27T00:36:22.731Z,62.36
2018-12-27T00:39:13.331Z,62.72
2018-12-27T00:42:03.566Z,62.62
2018-12-27T00:44:53.754Z,63.08
2018-12-27T00:47:44.252Z,63.25
2018-12-27T00:50:34.546Z,62.76
2018-12-27T00:53:24.755Z,62.76
2018-12-27T00:56:15.608Z,62.39
2018-12-27T00:59:05.152Z,62.12
2018-12-27T01:01:55.472Z,62.25
2018-12-27T01:05:04.657Z,62.14
2018-12-27T01:07:54.690Z,62.00
2018-12-27T01:10:44.781Z,61.93
2018-12-27T01:13:35.253Z,62.15
2018-12-27T01:16:25.457Z,62.05
2018-12-27T01:19:15.283Z,61.81
2018-12-27T01:22:05.619Z,61.83
2018-12-27T01:24:55.917Z,62.07
2018-12-27T01:27:46.438Z,62.05
2018-12-27T01:30:36.970Z,61.88
2018-12-27T01:33:26.878Z,61.75
2018-12-27T01:36:16.973Z,61.74
2018-12-27T01:39:07.387Z,61.58
2018-12-27T01:41:57.526Z,61.71
2018-12-27T01:44:47.783Z,61.80
2018-12-27T01:47:38.216Z,61.96
2018-12-27T01:50:28.053Z,61.95
2018-12-27T01:53:18.993Z,61.50
2018-12-27T01:56:09.014Z,61.36
2018-12-27T01:58:59.144Z,61.96
2018-12-27T02:01:48.922Z,61.73
2018-12-27T02:04:39.090Z,61.53
2018-12-27T02:07:28.920Z,61.83
2018-12-27T02:10:18.911Z,61.68
2018-12-27T02:13:08.850Z,61.37
2018-12-27T02:15:58.879Z,61.48
2018-12-27T02:18:49.376Z,61.04
2018-12-27T02:21:45.087Z,61.44
2018-12-27T02:24:35.234Z,61.46
2018-12-27T02:27:25.925Z,61.16
2018-12-27T02:30:16.400Z,61.93
2018-12-27T02:33:06.523Z,61.80
2018-12-27T02:35:58.665Z,61.71
2018-12-27T02:38:48.873Z,61.51
2018-12-27T02:41:39.083Z,61.29
2018-12-27T02:44:29.204Z,60.98
2018-12-27T02:47:19.487Z,61.05
2018-12-27T02:50:09.686Z,61.10
2018-12-27T02:53:00.111Z,60.88
2018-12-27T02:55:50.090Z,60.73
2018-12-27T02:58:40.649Z,61.09
2018-12-27T03:01:31.168Z,60.97
2018-12-27T03:04:21.337Z,60.66
2018-12-27T03:07:11.582Z,60.84
2018-12-27T03:10:02.099Z,60.80
2018-12-27T03:12:52.338Z,60.77
2018-12-27T03:15:42.793Z,60.73
2018-12-27T03:18:32.541Z,60.79
2018-12-27T03:21:23.227Z,60.71
2018-12-27T03:24:13.288Z,60.63
2018-12-27T03:27:03.465Z,60.80
2018-12-27T03:29:53.422Z,60.83
2018-12-27T03:32:43.629Z,60.84
2018-12-27T03:35:34.159Z,60.80
2018-12-27T03:38:23.821Z,60.93
2018-12-27T03:41:13.669Z,61.52
2018-12-27T03:44:03.873Z,61.76
2018-12-27T03:46:54.017Z,62.31
2018-12-27T03:49:44.031Z,62.07
2018-12-27T03:52:34.390Z,61.84
2018-12-27T03:55:25.169Z,61.75
2018-12-27T03:58:15.233Z,61.36
2018-12-27T04:01:04.815Z,60.88
2018-12-27T04:04:01.435Z,60.59
2018-12-27T04:06:46.370Z,60.33
2018-12-27T04:09:36.132Z,60.25
2018-12-27T04:12:26.142Z,60.20
2018-12-27T04:15:16.235Z,59.91
2018-12-27T04:18:06.502Z,60.26
2018-12-27T04:20:58.228Z,60.14
2018-12-27T04:23:48.990Z,60.31
2018-12-27T04:26:38.717Z,60.42
2018-12-27T04:29:28.590Z,60.31
2018-12-27T04:32:18.541Z,60.58
2018-12-27T04:35:08.098Z,60.51
2018-12-27T04:37:58.162Z,60.75
2018-12-27T04:40:48.073Z,60.65
2018-12-27T04:43:38.675Z,60.66
2018-12-27T04:46:28.703Z,60.42
2018-12-27T04:49:18.592Z,60.33
2018-12-27T04:52:08.054Z,60.38
2018-12-27T04:54:58.207Z,60.61
2018-12-27T04:57:47.706Z,60.59
2018-12-27T05:00:37.500Z,60.58
2018-12-27T05:03:27.311Z,60.42
2018-12-27T05:06:17.630Z,60.48
2018-12-27T05:09:08.054Z,60.36
2018-12-27T05:11:58.391Z,60.18
2018-12-27T05:14:47.800Z,60.34
2018-12-27T05:17:38.164Z,60.54
2018-12-27T05:20:28.241Z,60.73
2018-12-27T05:23:18.470Z,60.60
2018-12-27T05:26:08.304Z,60.59
2018-12-27T05:28:58.235Z,60.38
2018-12-27T05:31:48.422Z,60.66
2018-12-27T05:34:38.761Z,60.70
2018-12-27T05:37:28.994Z,61.31
2018-12-27T05:40:18.707Z,61.75
2018-12-27T05:43:09.282Z,61.76
2018-12-27T05:45:59.948Z,61.57
2018-12-27T05:48:50.063Z,61.52
2018-12-27T05:51:40.269Z,61.35
2018-12-27T05:54:30.064Z,61.24
2018-12-27T05:57:20.024Z,61.19
2018-12-27T06:00:10.137Z,61.56
2018-12-27T06:03:00.613Z,61.69
2018-12-27T06:05:50.650Z,61.45
2018-12-27T06:08:40.342Z,61.58
2018-12-27T06:11:30.583Z,61.55
2018-12-27T06:14:20.760Z,61.67
2018-12-27T06:17:11.036Z,61.50
2018-12-27T06:20:01.549Z,61.49
2018-12-27T06:22:51.790Z,61.47
2018-12-27T06:25:41.793Z,61.50
2018-12-27T06:28:32.562Z,61.40
2018-12-27T06:31:22.373Z,61.10
2018-12-27T06:34:12.581Z,61.27
2018-12-27T06:37:02.501Z,61.33
2018-12-27T06:39:52.672Z,61.54
2018-12-27T06:42:42.433Z,61.50
2018-12-27T06:45:33.091Z,61.31
2018-12-27T06:48:23.449Z,61.39
2018-12-27T06:51:13.489Z,61.89
2018-12-27T06:54:03.725Z,61.76
2018-12-27T06:56:54.060Z,61.89
2018-12-27T06:59:44.266Z,62.26
2018-12-27T07:02:34.713Z,62.10
2018-12-27T07:05:25.047Z,61.60
2018-12-27T07:08:15.157Z,61.79
2018-12-27T07:11:05.338Z,62.03
2018-12-27T07:13:55.639Z,61.27
2018-12-27T07:16:45.869Z,61.01
2018-12-27T07:19:36.117Z,60.88
2018-12-27T07:22:26.831Z,61.05
2018-12-27T07:25:16.703Z,61.00
2018-12-27T07:28:06.508Z,60.94
2018-12-27T07:30:56.695Z,61.00
2018-12-27T07:33:46.667Z,61.13
2018-12-27T07:36:36.662Z,60.94
2018-12-27T07:39:26.689Z,60.60
2018-12-27T07:42:16.863Z,61.19
2018-12-27T07:45:07.173Z,61.17
2018-12-27T07:47:56.905Z,61.75
2018-12-27T07:50:46.864Z,62.25
2018-12-27T07:53:37.161Z,61.98
2018-12-27T07:56:26.885Z,62.13
2018-12-27T07:59:16.903Z,62.07
2018-12-27T08:02:07.319Z,62.13
2018-12-27T08:05:03.690Z,61.94
2018-12-27T08:07:48.873Z,62.07
2018-12-27T08:10:41.066Z,62.15
2018-12-27T08:13:30.994Z,62.23
2018-12-27T08:16:26.315Z,62.05
2018-12-27T08:19:15.930Z,61.83
2018-12-27T08:22:06.497Z,61.69
2018-12-27T08:24:56.592Z,61.61
2018-12-27T08:27:47.280Z,62.10
2018-12-27T08:30:37.392Z,62.36
2018-12-27T08:33:28.007Z,62.41
2018-12-27T08:36:18.130Z,62.18
2018-12-27T08:39:08.508Z,62.09
2018-12-27T08:41:58.208Z,62.53
2018-12-27T08:44:48.454Z,63.29
2018-12-27T08:47:38.660Z,63.48
2018-12-27T08:50:28.568Z,63.31
2018-12-27T08:53:18.805Z,63.35
2018-12-27T08:56:08.885Z,63.07
2018-12-27T08:58:58.691Z,63.07
2018-12-27T09:01:48.648Z,62.79
2018-12-27T09:04:38.579Z,63.24
2018-12-27T09:07:28.242Z,63.31
2018-12-27T09:10:18.203Z,63.13
2018-12-27T09:13:08.405Z,62.91
2018-12-27T09:15:58.698Z,62.71
2018-12-27T09:18:48.155Z,62.61
2018-12-27T09:21:38.363Z,62.61
2018-12-27T09:24:28.618Z,62.46
2018-12-27T09:27:19.189Z,62.88
2018-12-27T09:30:09.347Z,62.54
2018-12-27T09:32:59.212Z,62.14
2018-12-27T09:35:49.153Z,62.86
2018-12-27T09:38:39.477Z,62.74
2018-12-27T09:41:29.905Z,62.52
2018-12-27T09:44:19.857Z,62.39
2018-12-27T09:47:09.779Z,62.32
2018-12-27T09:49:59.909Z,62.23
2018-12-27T09:52:50.004Z,62.12
2018-12-27T09:55:40.379Z,62.66
2018-12-27T09:58:30.591Z,62.95
2018-12-27T10:01:21.160Z,62.58
2018-12-27T10:04:11.207Z,62.53
2018-12-27T10:07:01.479Z,62.10
2018-12-27T10:09:51.974Z,62.25
2018-12-27T10:12:41.965Z,62.28
2018-12-27T10:15:31.963Z,62.47
2018-12-27T10:18:22.057Z,63.00
2018-12-27T10:21:12.037Z,63.01
2018-12-27T10:24:02.222Z,62.69
2018-12-27T10:26:52.316Z,62.35
2018-12-27T10:29:42.267Z,62.21
2018-12-27T10:32:32.634Z,62.26
2018-12-27T10:35:22.710Z,63.07
2018-12-27T10:38:13.024Z,63.46
2018-12-27T10:41:03.268Z,63.73
2018-12-27T10:43:53.346Z,63.33
2018-12-27T10:46:43.652Z,63.47
2018-12-27T10:49:33.664Z,62.84
2018-12-27T10:52:23.833Z,63.41
2018-12-27T10:55:14.008Z,63.34
2018-12-27T10:58:04.649Z,63.20
2018-12-27T11:00:55.040Z,62.83
2018-12-27T11:03:44.966Z,61.98
2018-12-27T11:06:35.263Z,62.07
2018-12-27T11:09:25.100Z,61.71
2018-12-27T11:12:15.050Z,61.35
2018-12-27T11:15:05.584Z,61.22
2018-12-27T11:17:55.603Z,60.22
2018-12-27T11:20:45.737Z,59.53
2018-12-27T11:23:36.129Z,58.87
2018-12-27T11:26:26.520Z,58.88
2018-12-27T11:29:17.190Z,57.68
2018-12-27T11:32:06.674Z,57.65
2018-12-27T11:34:56.657Z,57.77
2018-12-27T11:37:47.198Z,55.44
2018-12-27T11:40:37.436Z,55.08
2018-12-27T11:43:27.215Z,56.07
2018-12-27T11:46:17.494Z,56.02
2018-12-27T11:49:07.382Z,54.96
2018-12-27T11:51:57.295Z,56.15
2018-12-27T11:54:47.152Z,56.52
2018-12-27T11:57:36.971Z,56.98
2018-12-27T12:00:26.902Z,57.19
2018-12-27T12:03:17.046Z,57.16
2018-12-27T12:06:06.536Z,57.16
2018-12-27T12:08:57.114Z,57.99
2018-12-27T12:11:46.743Z,58.07
2018-12-27T12:14:37.284Z,58.23
2018-12-27T12:17:27.855Z,58.35
2018-12-27T12:20:17.608Z,58.19
2018-12-27T12:23:07.752Z,58.29
2018-12-27T12:25:58.022Z,57.71
2018-12-27T12:28:47.746Z,59.06
2018-12-27T12:31:37.840Z,58.66
2018-12-27T12:34:27.638Z,58.94
2018-12-27T12:37:19.447Z,59.79
2018-12-27T12:40:09.649Z,59.73
2018-12-27T12:43:00.307Z,59.28
2018-12-27T12:45:50.199Z,59.22
2018-12-27T12:48:40.889Z,58.55
2018-12-27T12:51:30.389Z,58.71
2018-12-27T12:54:20.096Z,58.36
2018-12-27T12:57:10.196Z,58.74
2018-12-27T17:31:20.505Z,64.92
2018-12-27T17:34:10.159Z,64.80
2018-12-27T17:36:59.911Z,64.82
2018-12-27T17:39:49.719Z,64.96
2018-12-27T17:42:39.678Z,64.85
2018-12-27T17:45:29.632Z,64.95
2018-12-27T17:48:19.632Z,65.02
2018-12-27T17:51:09.374Z,64.92
2018-12-27T17:53:59.237Z,65.01
2018-12-27T17:56:49.411Z,65.48
2018-12-27T17:59:39.236Z,65.69
2018-12-27T18:02:29.653Z,65.74
2018-12-27T18:05:19.638Z,65.94
2018-12-27T18:08:09.779Z,65.68
2018-12-27T18:10:59.711Z,65.49
2018-12-27T18:13:49.889Z,65.45
2018-12-27T18:16:40.018Z,65.33
2018-12-27T18:19:29.993Z,65.47
2018-12-27T18:22:19.938Z,65.46
2018-12-27T18:25:10.003Z,65.07
2018-12-27T18:28:00.430Z,64.84
2018-12-27T18:30:52.866Z,64.74
2018-12-27T18:33:43.353Z,64.83
2018-12-27T18:36:33.114Z,64.81
2018-12-27T18:39:23.180Z,64.76
2018-12-27T18:42:12.985Z,64.93
2018-12-27T18:45:03.095Z,64.96
2018-12-27T18:47:53.611Z,65.08
2018-12-27T18:50:43.856Z,64.99
2018-12-27T18:53:33.964Z,64.87
2018-12-27T18:56:24.422Z,64.77
2018-12-27T18:59:14.888Z,64.98
2018-12-27T19:02:05.675Z,65.05
2018-12-27T19:04:56.323Z,64.97
2018-12-27T19:07:46.690Z,64.63
2018-12-27T19:10:37.303Z,64.47
2018-12-27T19:13:27.163Z,64.62
2018-12-27T19:16:17.430Z,64.47
2018-12-27T19:19:07.767Z,64.44
2018-12-27T19:22:06.800Z,64.57
2018-12-27T19:24:56.676Z,64.56
2018-12-27T19:27:47.115Z,64.77
2018-12-27T19:30:36.992Z,64.59
2018-12-27T19:33:27.454Z,64.68
2018-12-27T19:36:17.467Z,64.62
2018-12-27T19:39:07.873Z,64.60
2018-12-27T19:41:58.364Z,64.60
2018-12-27T19:44:48.474Z,64.63
2018-12-27T19:47:38.691Z,64.63
2018-12-27T19:50:28.412Z,64.41
2018-12-27T19:53:18.438Z,64.34
2018-12-27T19:56:08.401Z,64.25
2018-12-27T19:58:58.832Z,64.48
2018-12-27T20:01:49.288Z,64.55
2018-12-27T20:04:39.702Z,64.41
2018-12-27T20:07:30.221Z,64.47
2018-12-27T20:10:20.651Z,64.33
2018-12-27T20:13:10.887Z,64.30
2018-12-27T20:16:01.006Z,64.24
2018-12-27T20:18:51.574Z,64.40
2018-12-27T20:21:42.143Z,64.15
2018-12-27T20:24:32.564Z,64.27
2018-12-27T20:27:23.064Z,64.13
2018-12-27T20:30:13.716Z,64.43
2018-12-27T20:33:04.168Z,64.76
2018-12-27T20:35:54.947Z,64.63
2018-12-27T20:38:45.139Z,64.75
2018-12-27T20:41:35.487Z,64.70
2018-12-27T20:44:25.644Z,64.83
2018-12-27T20:47:15.356Z,64.73
2018-12-27T20:50:07.055Z,64.61
2018-12-27T20:52:57.092Z,64.65
2018-12-27T20:55:46.896Z,64.95
2018-12-27T20:58:37.268Z,65.00
2018-12-27T21:01:27.216Z,64.84
2018-12-27T21:04:17.757Z,64.68
2018-12-27T21:07:08.232Z,64.60
2018-12-27T21:09:59.036Z,64.44
2018-12-27T21:12:48.495Z,64.46
2018-12-27T21:15:38.427Z,64.37
2018-12-27T21:18:28.541Z,64.33
2018-12-27T21:21:19.126Z,64.46
2018-12-27T21:24:10.690Z,64.37
2018-12-27T21:27:01.340Z,64.44
2018-12-27T21:29:51.734Z,64.79
2018-12-27T21:32:41.790Z,64.90
2018-12-27T21:35:32.234Z,64.74
2018-12-27T21:38:22.458Z,64.48
2018-12-27T21:41:12.185Z,64.31
2018-12-27T21:44:02.116Z,64.19
2018-12-27T21:46:52.078Z,64.13
2018-12-27T21:49:42.142Z,64.19
2018-12-27T21:52:32.402Z,64.32
2018-12-27T21:55:22.530Z,64.35
2018-12-27T21:58:12.906Z,64.30
2018-12-27T22:01:03.071Z,64.27
2018-12-27T22:03:53.715Z,64.65
2018-12-27T22:06:43.563Z,65.05
2018-12-27T22:09:34.012Z,64.87
2018-12-27T22:12:24.490Z,64.80
2018-12-27T22:15:15.156Z,64.66
2018-12-27T22:18:04.975Z,64.73
2018-12-27T22:20:55.435Z,64.73
2018-12-27T22:23:45.755Z,64.63
2018-12-27T22:26:35.837Z,64.55
2018-12-27T22:29:26.501Z,64.84
2018-12-27T22:32:16.980Z,65.09
2018-12-27T22:35:07.146Z,65.04
2018-12-27T22:37:57.411Z,65.02
2018-12-27T22:40:47.581Z,64.96
2018-12-27T22:43:37.866Z,65.10
2018-12-27T22:46:28.508Z,65.08
2018-12-27T22:49:18.812Z,64.89
2018-12-27T22:52:09.161Z,64.91
2018-12-27T22:54:59.642Z,64.83
2018-12-27T22:57:50.031Z,64.81
2018-12-27T23:00:41.196Z,64.65
2018-12-27T23:03:31.714Z,64.59
2018-12-27T23:06:22.113Z,64.77
2018-12-27T23:09:12.092Z,65.14
2018-12-27T23:12:02.510Z,65.00
2018-12-27T23:14:52.826Z,64.90
2018-12-27T23:17:43.448Z,64.83
2018-12-27T23:20:33.961Z,64.79
2018-12-27T23:29:03.447Z,64.81
2018-12-27T23:31:54.055Z,64.72
2018-12-27T23:37:26.690Z,64.72
2018-12-27T23:40:17.011Z,64.69
2018-12-27T23:43:07.299Z,64.57
2018-12-27T23:45:57.453Z,64.65
2018-12-27T23:48:47.910Z,64.54
2018-12-27T23:51:38.855Z,64.45
2018-12-27T23:54:29.010Z,64.48
2018-12-27T23:57:18.619Z,64.50
